Airfield :







YOU CAN JOIN US ON...

 
LOGIN :

Register | Disclaimer

   EN    FR    IT 

 









Legend :    VFR   Marginal VFR   IFR   Intensive IFR   Very Intensive IFR
Visi :
Ceiling :
>= 8 km
>= 3000ft
5 to 8 km
1000 to 3000 ft
1500m to 5 km
500 to 1000 ft
800 to 1500m
200 to 500 ft
< 800m
< 200 ft
Symbols :   Thunderstorms  Fog  Heavy snow  Heavy precipitations  Wind > 20 kt






- Airport Elevation : 357 ft
- IATA code : YSJ


CYSJ - Saint John

CURRENT METAR :
  • 250500Z 31004KT 15SM SKC 10/07 A2968 RMK SLP054

EXPIRED METARs :
  • 250400Z 32007KT 15SM FEW075 FEW100 11/07 A2970 RMK AC1AC1 SLP061
  • 250300Z 31007KT 15SM FEW075 SCT100 12/08 A2970 RMK AC2AC2 SLP059
  • 250200Z 30010KT 15SM SCT072 BKN100 13/09 A2970 RMK AC3AC3 SLP059
  • 250100Z 32004KT 15SM SCT060 BKN090 14/13 A2969 RMK SC4AC2 SLP056 DENSITY ALT 600FT

TAF TAF CYSJ
Valid from the 25 at 06:00 until the 25 at 18:00 UTC


250540Z 2506/2518 31005KT P6SM SKC
BECMG 2512/2514 30012KT
FM251700 23010KT P6SM BKN080 RMK NXT FCST BY 251200Z
CZQM FIR / North America



MET'MAP, your aeronautical weather chart ! - Copyright ORBIFLY December 2007 - Disclaimer

ORBIFLY MET'MAP TEAM :

Programming & Development : Alexandra Zaïnal
Original concept : Baudouin d'Aumeries
Technical & hardware support : Manuel Goepfert
Assistance : Marc-Olivier Méhu




SOURCES & CREDITS :

   NOAA